KHTL/HTL METAR and TAF weather

Enter ICAO airport designator
Station Type Date Time Source
KHTL METAR 2019/04/26 02:53 UTC NOAA

KHTL 260253Z AUTO 02010KT 10SM CLR 12/04 A2970 RMK AO2 SLP058 T01220039 58003


Station Type Date Time Source
KHTL Decoded METAR 2019/04/26 02:53 UTC NOAA

ROSCOMMON COUNTY AIRPORT, MI, United States (KHTL) 44-21N 084-40W 351M
Apr 25, 2019 - 10:53 PM EDT / 2019.04.26 0253 UTC
Wind: from the NNE (020 degrees) at 12 MPH (10 KT):0
Visibility: 10 mile(s):0
Sky conditions: clear
Temperature: 54.0 F (12.2 C)
Dew Point: 39.0 F (3.9 C)
Relative Humidity: 56%
Pressure (altimeter): 29.7 in. Hg (1005 hPa)
Pressure tendency: 0.01 inches (0.3 hPa) lower than three hours ago
ob: KHTL 260253Z AUTO 02010KT 10SM CLR 12/04 A2970 RMK AO2 SLP058 T01220039 58003
cycle: 3

Station Type Date Time Source
KHTL TAF UTC NOAA

Error!

Example: see airport list